East Jordan, MI

12:58 AM EDT on May 29, 2015 (GMT -0400)
Charlevoix Municipal | | Change Station
CLOSE
Current Station
Airport
Location: Charlevoix,
Elevation: 669 ft
Nearby Weather Stations

Elev 669 ft 45.30 °N, 85.27 °W | Updated 3 minutes ago

Clear
Clear
61 °F
Feels Like 61 °F
N
5
Wind Variable Wind from ESE

Today
High -- | Low -- °F
--% Chance of Precip.
Yesterday
High -- | Low -- °F
Precip. -- in
5:58 AM 9:17 PM
Waxing Gibbous, 81% visible
Pressure 30.14 in
Visibility 10.0 miles
Clouds Clear
Dew Point 57 °F
Humidity 88%
Rainfall 0.00 in
Snow Depth Not available.
UV 0 out of 12
Pollen 9.10 out of 12
Air Quality Not available.
Flu Activity Sporadic
METAR KCVX 290455Z AUTO 12004KT 10SM CLR 16/14 A3014 RMK AO2 T01610141

More Conditions Fewer Conditions

Pressure 30.14 in
Visibility 10.0 miles
Clouds Clear
Dew Point 57 °F
Humidity 88%
Rainfall 0.00 in
Snow Depth Not available.
UV 0 out of 12
Pollen 9.10 out of 12
Air Quality Not available.
Flu Activity Sporadic
METAR KCVX 290455Z AUTO 12004KT 10SM CLR 16/14 A3014 RMK AO2 T01610141

More Conditions Fewer Conditions

Nowcast | as of 12:00 am EDT on May 29, 2015

At 1 am...mostly clear. Temperature 60. Southeast winds 7 mph. At 3 am...mostly clear. Patchy fog. Temperature 60. South winds 8 mph. At 5 am...mostly clear. Patchy fog. Temperature 60. South winds 9 mph. At 7 am...partly cloudy. Patchy fog. Temperature 62. South winds 10 mph.

×

10-Day Weather Forecast

Almanac

Astronomy

May. 29, 2015 Rise Set
Actual Time
Civil Twilight
Nautical Twilight
Astronomical Twilight
Moon
Length of Visible Light
Length of Day
Tomorrow will be .
, % of the Moon is Illuminated

Today's Extremes

State Highs State Lows

Community

WunderPhotos

Upload Photos

1,825,209 photos uploaded!

WunderBlogs® & News

Nearby

Air Quality

  Air Quality AQ Index Pollutant
Not available.

Snow Depth

Station Depth Elevation

Earthquake Activity

City Distance Mag. Time & Date
Minimum magnitude displayed is 2.5.

Coastal Water Temperatures

Place Temperature

Stations

Nearby Weather Stations

Station Location Temp. Windchill Dew Point Humidity Wind Precip. Elev Updated Type